Main page
METAR-TAF:

METAR-TAF

Airports :

Sanikiluaq Airport

Sanikiluaq, Nunavut, Canada

latitude: 56-32N, longitude: 079-15W, elevation: 32 m

Current weather observation

The report was made 8 hours and 31 minutes ago, at 20:00 UTC
Wind 5 kt from the South
Temperature -16°C
Humidity 65%
Pressure 1012 hPa
Visibility: 24.1 km
Broken clouds at a height of 2000 ft

METAR: CYSK 222000Z 17005KT 15SM BKN020 M16/M21 A2988 RMK SC5 SLP123

Time: 00:31 (04:31 UTC)


TAF: missing

Weather observations and forecasts of more than 4000 airports (METAR and TAF reports).

The available stations are represented by yellow and red dots on the map.

Hover mouse over dot to see the name of the station.

Then click to see weather observations and forecasts.

To change the map : click on the green buttons with a black cross to zoom in, on the green button with a dash to zoom out, or on the green arrows for adjacent maps.


METAR-TAF: